Victoria Harbour (Camel Point) Heliport

CBF7 · 不列颠哥伦比亚, 加拿大

使用的METAR站距离机场14 NM。
罗盘
风向 的 风向 270° 直升机
风: 5 kt, 2 beaufort
0 ft 1.000 2.000 3.000 4.000 5.000
没有云
METAR CYYJ 151000Z 27005KT 30SM SKC 16/14 A3003 RMK SLP170

METAR Victoria Harbour (Camel Point) Heliport - CBF7

Victoria Harbour (Camel Point) Heliport是,加拿大中的直升机场。 该机场位于纬度48,41810和经度-123,38800。 该机场的伪ICAO代码为CBF7。 机场在Vancouver FIR中。

该航空气象观测是针对Victoria International Airport在2024年7月15日 03:00, 当地时间进行的。

机场观察

风向为270°,速度为5 kt。

可见度为30 mi。

有没有云。 没有观察到天花板。

温度和风寒是16 °C。 露点为14 °C,相对湿度为88%。 海平面上的气压为30,03 inHg (QNH)。

白天

今天,太阳从05:29升起,在21:10降落。 这适用于Victoria Harbour (Camel Point) Heliport,世界夏令时可能有所不同。 当地时间与世界标准时间之间的时差为-7 小时。 夏令时目前正在进行中。

公司介绍

我们没有关于这个机场的公司信息。

体会

到Vliegles.nl去找飞行课程,跳伞和其他飞行体验。 浏览页面,了解Victoria Harbour (Camel Point) Heliport附近所有可用的活动。 你也可以使用搜索功能来寻找你所在地附近的特定飞行课程、跳伞或其他飞行体验。

乌云

- SKC 没有云

温度 & 天气

温度 16 °C
露点 14 °C
相对湿度 88%
Kp-index 0 (0-9)

评论

SLP170海平面压力为30,03 inHg (30,03 inHg)

白天

日出
05:28 (1:30)
中午
13:19
日落
21:11

小工具

你想在你的网站上有一个关于Victoria Harbour (Camel Point) Heliport的当前航空天气(METAR)的小部件吗?

显示HTML代码
报告变更